< < Back
Terminal Aerodrome Forecast


Current Version              Previous Versions:   1  2  3  4  5  6  7  8  9  

Terminal Aerodrome Forecast

313
FTUS42 KGSP 220531
TAFAVL
TAF
KAVL 220531Z 2206/2306 34012G20KT P6SM FEW021 BKN040
      TEMPO 2206/2209 BKN021 OVC040
     FM220900 34010G18KT P6SM BKN015
     FM221300 34010KT P6SM SCT035
     FM221500 35010KT P6SM SCT250
     FM230100 33005KT P6SM FEW250=



Latest METAR

256
SAUS70 KWBC 221000 RRI
MTRAVL
METAR KAVL 220954Z AUTO 34015KT 10SM SCT030 10/04 A3015 RMK AO2 PK WND
33026/0900 SLP194 T01000039


USA.gov is the U.S. government's official web portal to all federal, state and local government web resources and services.